Řízení letového provozu České republiky
Letiste: LKMT Aktualizace: 29.07.2016 05:48:05  UTC
 SPECI LKMT 29.07. 05:45 ...
SPECI LKMT 290545Z 23004KT 1000 R22/1500U R04/1400 BR BKN002 17/17 Q1015 RMK REG QNH 1012=
 METAR LKMT 29.07. 05:30 ...
METAR LKMT 290530Z 23004KT 0400 R22/0800 R04/0450N FG SCT001 BKN004 17/16 Q1015 TEMPO 1000 BR BKN005 RMK REG QNH 1012=
 TAF LKMT 29.07. 05:00 ...
TAF LKMT 290500Z 2906/3012 23006KT 0400 FG OVC002      TEMPO 2906/2907 0200 FG OVC001      BECMG 2907/2909 23012KT 9999 BKN033      TEMPO 2909/2918 7000 SHRA SCT030TCU      PROB30 TEMPO 2910/2918 4000 TSRA SCT030CB      BECMG 2918/2920 CAVOK=